sensor_id;sensor_type;location;lat;lon;timestamp;temperature;humidity
6538;DHT22;3302;52.508;13.454;2022-11-02T00:01:25;11.10;99.90
6538;DHT22;3302;52.508;13.454;2022-11-02T00:03:51;11.10;99.90
6538;DHT22;3302;52.508;13.454;2022-11-02T00:06:16;11.10;99.90
6538;DHT22;3302;52.508;13.454;2022-11-02T00:08:42;11.00;99.90
6538;DHT22;3302;52.508;13.454;2022-11-02T00:11:08;11.00;99.90
6538;DHT22;3302;52.508;13.454;2022-11-02T00:13:34;10.90;99.90
6538;DHT22;3302;52.508;13.454;2022-11-02T00:16:04;10.90;99.90
6538;DHT22;3302;52.508;13.454;2022-11-02T00:18:33;10.90;99.90
6538;DHT22;3302;52.508;13.454;2022-11-02T00:20:59;11.00;99.90
6538;DHT22;3302;52.508;13.454;2022-11-02T00:23:26;11.00;99.90
6538;DHT22;3302;52.508;13.454;2022-11-02T00:25:53;10.90;99.90
6538;DHT22;3302;52.508;13.454;2022-11-02T00:28:20;10.90;99.90
6538;DHT22;3302;52.508;13.454;2022-11-02T00:30:46;10.90;99.90
6538;DHT22;3302;52.508;13.454;2022-11-02T00:33:12;10.90;99.90
6538;DHT22;3302;52.508;13.454;2022-11-02T00:35:38;10.90;99.90
6538;DHT22;3302;52.508;13.454;2022-11-02T00:38:04;10.90;99.90
6538;DHT22;3302;52.508;13.454;2022-11-02T00:40:30;10.90;99.90
6538;DHT22;3302;52.508;13.454;2022-11-02T00:42:56;11.00;99.90
6538;DHT22;3302;52.508;13.454;2022-11-02T00:45:22;10.90;99.90
6538;DHT22;3302;52.508;13.454;2022-11-02T00:47:48;10.90;99.90
6538;DHT22;3302;52.508;13.454;2022-11-02T00:50:15;10.90;99.90
6538;DHT22;3302;52.508;13.454;2022-11-02T00:52:41;10.90;99.90
6538;DHT22;3302;52.508;13.454;2022-11-02T00:55:07;10.80;99.90
6538;DHT22;3302;52.508;13.454;2022-11-02T00:57:34;10.80;99.90
6538;DHT22;3302;52.508;13.454;2022-11-02T01:00:00;10.80;99.90
6538;DHT22;3302;52.508;13.454;2022-11-02T01:02:27;10.80;99.90
6538;DHT22;3302;52.508;13.454;2022-11-02T01:04:52;10.80;99.90
6538;DHT22;3302;52.508;13.454;2022-11-02T01:07:18;10.80;99.90
6538;DHT22;3302;52.508;13.454;2022-11-02T01:09:44;10.80;99.90
6538;DHT22;3302;52.508;13.454;2022-11-02T01:12:10;10.80;99.90
6538;DHT22;3302;52.508;13.454;2022-11-02T01:14:35;10.70;99.90
6538;DHT22;3302;52.508;13.454;2022-11-02T01:17:02;10.70;99.90
6538;DHT22;3302;52.508;13.454;2022-11-02T01:19:29;10.60;99.90
6538;DHT22;3302;52.508;13.454;2022-11-02T01:21:54;10.70;99.90
6538;DHT22;3302;52.508;13.454;2022-11-02T01:24:20;10.60;99.90
6538;DHT22;3302;52.508;13.454;2022-11-02T01:26:50;10.60;99.90
6538;DHT22;3302;52.508;13.454;2022-11-02T01:29:16;10.60;99.90
6538;DHT22;3302;52.508;13.454;2022-11-02T01:31:42;10.60;99.90
6538;DHT22;3302;52.508;13.454;2022-11-02T01:34:10;10.60;99.90
6538;DHT22;3302;52.508;13.454;2022-11-02T01:36:35;10.60;99.90
6538;DHT22;3302;52.508;13.454;2022-11-02T01:39:01;10.60;99.90
6538;DHT22;3302;52.508;13.454;2022-11-02T01:41:27;10.60;99.90
6538;DHT22;3302;52.508;13.454;2022-11-02T01:43:55;10.50;99.90
6538;DHT22;3302;52.508;13.454;2022-11-02T01:46:40;10.50;99.90
6538;DHT22;3302;52.508;13.454;2022-11-02T01:49:10;10.40;99.90
6538;DHT22;3302;52.508;13.454;2022-11-02T01:52:00;10.40;99.90
6538;DHT22;3302;52.508;13.454;2022-11-02T01:54:29;10.40;99.90
6538;DHT22;3302;52.508;13.454;2022-11-02T01:57:00;10.40;99.90
6538;DHT22;3302;52.508;13.454;2022-11-02T01:59:34;10.30;99.90
6538;DHT22;3302;52.508;13.454;2022-11-02T02:02:05;10.20;99.90
6538;DHT22;3302;52.508;13.454;2022-11-02T02:04:32;10.20;99.90
6538;DHT22;3302;52.508;13.454;2022-11-02T02:06:58;10.10;99.90
6538;DHT22;3302;52.508;13.454;2022-11-02T02:09:25;10.20;99.90
6538;DHT22;3302;52.508;13.454;2022-11-02T02:11:51;10.20;99.90
6538;DHT22;3302;52.508;13.454;2022-11-02T02:14:18;10.10;99.90
6538;DHT22;3302;52.508;13.454;2022-11-02T02:31:13;9.80;99.90
6538;DHT22;3302;52.508;13.454;2022-11-02T02:36:48;9.70;99.90
6538;DHT22;3302;52.508;13.454;2022-11-02T02:39:40;9.70;99.90
6538;DHT22;3302;52.508;13.454;2022-11-02T02:42:17;9.60;99.90
6538;DHT22;3302;52.508;13.454;2022-11-02T02:44:53;9.60;99.90
6538;DHT22;3302;52.508;13.454;2022-11-02T02:47:23;9.60;99.90
6538;DHT22;3302;52.508;13.454;2022-11-02T02:50:01;9.60;99.90
6538;DHT22;3302;52.508;13.454;2022-11-02T02:52:29;9.60;99.90
6538;DHT22;3302;52.508;13.454;2022-11-02T02:54:58;9.70;99.90
6538;DHT22;3302;52.508;13.454;2022-11-02T02:57:27;9.50;99.90
6538;DHT22;3302;52.508;13.454;2022-11-02T02:59:55;9.50;99.90
6538;DHT22;3302;52.508;13.454;2022-11-02T03:02:24;9.50;99.90
6538;DHT22;3302;52.508;13.454;2022-11-02T03:04:51;9.50;99.90
6538;DHT22;3302;52.508;13.454;2022-11-02T03:07:21;9.50;99.90
6538;DHT22;3302;52.508;13.454;2022-11-02T03:09:57;9.50;99.90
6538;DHT22;3302;52.508;13.454;2022-11-02T03:12:50;9.50;99.90
6538;DHT22;3302;52.508;13.454;2022-11-02T03:15:23;9.40;99.90
6538;DHT22;3302;52.508;13.454;2022-11-02T03:18:12;9.40;99.90
6538;DHT22;3302;52.508;13.454;2022-11-02T03:23:43;9.40;99.90
6538;DHT22;3302;52.508;13.454;2022-11-02T03:26:31;9.40;99.90
6538;DHT22;3302;52.508;13.454;2022-11-02T03:29:07;9.40;99.90
6538;DHT22;3302;52.508;13.454;2022-11-02T03:34:21;9.30;99.90
6538;DHT22;3302;52.508;13.454;2022-11-02T03:36:57;9.30;99.90
6538;DHT22;3302;52.508;13.454;2022-11-02T03:39:31;9.30;99.90
6538;DHT22;3302;52.508;13.454;2022-11-02T03:42:00;9.30;99.90
6538;DHT22;3302;52.508;13.454;2022-11-02T03:44:29;9.20;99.90
6538;DHT22;3302;52.508;13.454;2022-11-02T03:46:58;9.20;99.90
6538;DHT22;3302;52.508;13.454;2022-11-02T03:49:26;9.20;99.90
6538;DHT22;3302;52.508;13.454;2022-11-02T03:51:54;9.10;99.90
6538;DHT22;3302;52.508;13.454;2022-11-02T03:57:15;9.20;99.90
6538;DHT22;3302;52.508;13.454;2022-11-02T03:59:43;9.10;99.90
6538;DHT22;3302;52.508;13.454;2022-11-02T04:02:10;9.10;99.90
6538;DHT22;3302;52.508;13.454;2022-11-02T04:04:50;9.10;99.90
6538;DHT22;3302;52.508;13.454;2022-11-02T04:07:19;9.00;99.90
6538;DHT22;3302;52.508;13.454;2022-11-02T04:09:46;9.00;99.90
6538;DHT22;3302;52.508;13.454;2022-11-02T04:12:12;9.00;99.90
6538;DHT22;3302;52.508;13.454;2022-11-02T04:14:56;9.00;99.90
6538;DHT22;3302;52.508;13.454;2022-11-02T04:17:22;8.90;99.90
6538;DHT22;3302;52.508;13.454;2022-11-02T04:20:07;9.00;99.90
6538;DHT22;3302;52.508;13.454;2022-11-02T04:22:33;9.00;99.90
6538;DHT22;3302;52.508;13.454;2022-11-02T04:25:18;9.00;99.90
6538;DHT22;3302;52.508;13.454;2022-11-02T04:27:49;9.00;99.90
6538;DHT22;3302;52.508;13.454;2022-11-02T04:30:17;9.00;99.90
6538;DHT22;3302;52.508;13.454;2022-11-02T04:32:45;8.90;99.90
6538;DHT22;3302;52.508;13.454;2022-11-02T04:35:30;8.90;99.90
6538;DHT22;3302;52.508;13.454;2022-11-02T04:37:57;9.00;99.90
6538;DHT22;3302;52.508;13.454;2022-11-02T04:40:41;9.00;99.90
6538;DHT22;3302;52.508;13.454;2022-11-02T04:43:07;9.00;99.90
6538;DHT22;3302;52.508;13.454;2022-11-02T04:45:33;8.90;99.90
6538;DHT22;3302;52.508;13.454;2022-11-02T04:48:00;8.90;99.90
6538;DHT22;3302;52.508;13.454;2022-11-02T04:50:26;8.90;99.90
6538;DHT22;3302;52.508;13.454;2022-11-02T04:52:59;8.90;99.90
6538;DHT22;3302;52.508;13.454;2022-11-02T04:55:26;9.00;99.90
6538;DHT22;3302;52.508;13.454;2022-11-02T04:57:52;9.00;99.90
6538;DHT22;3302;52.508;13.454;2022-11-02T05:00:18;9.00;99.90
6538;DHT22;3302;52.508;13.454;2022-11-02T05:02:48;9.00;99.90
6538;DHT22;3302;52.508;13.454;2022-11-02T05:05:15;9.00;99.90
6538;DHT22;3302;52.508;13.454;2022-11-02T05:07:41;9.00;99.90
6538;DHT22;3302;52.508;13.454;2022-11-02T05:10:08;9.00;99.90
6538;DHT22;3302;52.508;13.454;2022-11-02T05:12:34;8.90;99.90
6538;DHT22;3302;52.508;13.454;2022-11-02T05:15:00;8.90;99.90
6538;DHT22;3302;52.508;13.454;2022-11-02T05:17:26;8.90;99.90
6538;DHT22;3302;52.508;13.454;2022-11-02T05:19:51;8.90;99.90
6538;DHT22;3302;52.508;13.454;2022-11-02T05:22:17;8.80;99.90
6538;DHT22;3302;52.508;13.454;2022-11-02T05:24:43;8.80;99.90
6538;DHT22;3302;52.508;13.454;2022-11-02T05:27:09;8.80;99.90
6538;DHT22;3302;52.508;13.454;2022-11-02T05:29:35;8.80;99.90
6538;DHT22;3302;52.508;13.454;2022-11-02T05:32:01;8.80;99.90
6538;DHT22;3302;52.508;13.454;2022-11-02T05:34:26;8.80;99.90
6538;DHT22;3302;52.508;13.454;2022-11-02T05:36:52;8.90;99.90
6538;DHT22;3302;52.508;13.454;2022-11-02T05:39:18;8.80;99.90
6538;DHT22;3302;52.508;13.454;2022-11-02T05:41:44;8.90;99.90
6538;DHT22;3302;52.508;13.454;2022-11-02T05:44:09;8.90;99.90
6538;DHT22;3302;52.508;13.454;2022-11-02T05:46:35;9.00;99.90
6538;DHT22;3302;52.508;13.454;2022-11-02T05:49:01;8.90;99.90
6538;DHT22;3302;52.508;13.454;2022-11-02T05:51:26;8.90;99.90
6538;DHT22;3302;52.508;13.454;2022-11-02T05:53:52;8.90;99.90
6538;DHT22;3302;52.508;13.454;2022-11-02T05:56:18;8.90;99.90
6538;DHT22;3302;52.508;13.454;2022-11-02T05:58:43;8.90;99.90
6538;DHT22;3302;52.508;13.454;2022-11-02T06:01:10;8.90;99.90
6538;DHT22;3302;52.508;13.454;2022-11-02T06:03:36;8.90;99.90
6538;DHT22;3302;52.508;13.454;2022-11-02T06:06:06;8.90;99.90
6538;DHT22;3302;52.508;13.454;2022-11-02T06:08:33;8.90;99.90
6538;DHT22;3302;52.508;13.454;2022-11-02T06:11:11;8.90;99.90
6538;DHT22;3302;52.508;13.454;2022-11-02T06:13:37;8.90;99.90
6538;DHT22;3302;52.508;13.454;2022-11-02T06:16:05;8.90;99.90
6538;DHT22;3302;52.508;13.454;2022-11-02T06:18:34;8.90;99.90
6538;DHT22;3302;52.508;13.454;2022-11-02T06:21:00;8.90;99.90
6538;DHT22;3302;52.508;13.454;2022-11-02T06:23:26;8.90;99.90
6538;DHT22;3302;52.508;13.454;2022-11-02T06:25:53;8.90;99.90
6538;DHT22;3302;52.508;13.454;2022-11-02T06:28:20;8.90;99.90
6538;DHT22;3302;52.508;13.454;2022-11-02T06:30:47;8.90;99.90
6538;DHT22;3302;52.508;13.454;2022-11-02T06:33:14;9.00;99.90
6538;DHT22;3302;52.508;13.454;2022-11-02T06:35:44;8.90;99.90
6538;DHT22;3302;52.508;13.454;2022-11-02T06:38:10;8.90;99.90
6538;DHT22;3302;52.508;13.454;2022-11-02T06:40:36;8.90;99.90
6538;DHT22;3302;52.508;13.454;2022-11-02T06:43:02;8.90;99.90
6538;DHT22;3302;52.508;13.454;2022-11-02T06:45:27;8.90;99.90
6538;DHT22;3302;52.508;13.454;2022-11-02T06:47:53;8.90;99.90
6538;DHT22;3302;52.508;13.454;2022-11-02T06:50:19;8.90;99.90
6538;DHT22;3302;52.508;13.454;2022-11-02T06:52:46;9.00;99.90
6538;DHT22;3302;52.508;13.454;2022-11-02T06:55:13;9.00;99.90
6538;DHT22;3302;52.508;13.454;2022-11-02T06:57:40;9.00;99.90
6538;DHT22;3302;52.508;13.454;2022-11-02T07:00:08;9.00;99.90
6538;DHT22;3302;52.508;13.454;2022-11-02T07:02:35;9.00;99.90
6538;DHT22;3302;52.508;13.454;2022-11-02T07:05:01;9.10;99.90
6538;DHT22;3302;52.508;13.454;2022-11-02T07:07:27;9.20;99.90
6538;DHT22;3302;52.508;13.454;2022-11-02T07:09:52;9.10;99.90
6538;DHT22;3302;52.508;13.454;2022-11-02T07:12:19;9.10;99.90
6538;DHT22;3302;52.508;13.454;2022-11-02T07:14:44;9.20;99.90
6538;DHT22;3302;52.508;13.454;2022-11-02T07:17:10;9.30;99.90
6538;DHT22;3302;52.508;13.454;2022-11-02T07:19:36;9.30;99.90
6538;DHT22;3302;52.508;13.454;2022-11-02T07:22:01;9.20;99.90
6538;DHT22;3302;52.508;13.454;2022-11-02T07:24:27;9.30;99.90
6538;DHT22;3302;52.508;13.454;2022-11-02T07:26:53;9.30;99.90
6538;DHT22;3302;52.508;13.454;2022-11-02T07:29:19;9.30;99.90
6538;DHT22;3302;52.508;13.454;2022-11-02T07:31:45;9.30;99.90
6538;DHT22;3302;52.508;13.454;2022-11-02T07:34:11;9.40;99.90
6538;DHT22;3302;52.508;13.454;2022-11-02T07:36:38;9.50;99.90
6538;DHT22;3302;52.508;13.454;2022-11-02T07:39:04;9.50;99.90
6538;DHT22;3302;52.508;13.454;2022-11-02T07:41:33;9.60;99.90
6538;DHT22;3302;52.508;13.454;2022-11-02T07:43:59;9.70;99.90
6538;DHT22;3302;52.508;13.454;2022-11-02T07:46:24;9.70;99.90
6538;DHT22;3302;52.508;13.454;2022-11-02T07:48:50;9.80;99.90
6538;DHT22;3302;52.508;13.454;2022-11-02T07:51:16;9.90;99.90
6538;DHT22;3302;52.508;13.454;2022-11-02T07:53:41;10.00;99.90
6538;DHT22;3302;52.508;13.454;2022-11-02T07:56:07;10.10;99.90
6538;DHT22;3302;52.508;13.454;2022-11-02T07:58:33;10.20;99.90
6538;DHT22;3302;52.508;13.454;2022-11-02T08:00:59;10.40;99.90
6538;DHT22;3302;52.508;13.454;2022-11-02T08:03:26;10.50;99.90
6538;DHT22;3302;52.508;13.454;2022-11-02T08:05:53;10.60;99.90
6538;DHT22;3302;52.508;13.454;2022-11-02T08:08:22;10.70;99.90
6538;DHT22;3302;52.508;13.454;2022-11-02T08:10:49;10.90;99.90
6538;DHT22;3302;52.508;13.454;2022-11-02T08:13:18;11.00;99.90
6538;DHT22;3302;52.508;13.454;2022-11-02T08:15:48;11.00;99.90
6538;DHT22;3302;52.508;13.454;2022-11-02T08:18:17;11.00;99.90
6538;DHT22;3302;52.508;13.454;2022-11-02T08:20:43;11.10;99.90
6538;DHT22;3302;52.508;13.454;2022-11-02T08:23:14;11.00;99.90
6538;DHT22;3302;52.508;13.454;2022-11-02T08:25:40;11.10;99.90
6538;DHT22;3302;52.508;13.454;2022-11-02T08:28:11;11.00;99.90
6538;DHT22;3302;52.508;13.454;2022-11-02T08:30:37;11.10;99.90
6538;DHT22;3302;52.508;13.454;2022-11-02T08:33:05;11.20;99.90
6538;DHT22;3302;52.508;13.454;2022-11-02T08:35:32;11.20;99.90
6538;DHT22;3302;52.508;13.454;2022-11-02T08:37:59;11.20;99.90
6538;DHT22;3302;52.508;13.454;2022-11-02T08:40:26;11.30;99.90
6538;DHT22;3302;52.508;13.454;2022-11-02T08:43:11;11.20;99.90
6538;DHT22;3302;52.508;13.454;2022-11-02T08:45:39;11.30;99.90
6538;DHT22;3302;52.508;13.454;2022-11-02T08:48:05;11.30;99.90
6538;DHT22;3302;52.508;13.454;2022-11-02T08:50:31;11.30;99.90
6538;DHT22;3302;52.508;13.454;2022-11-02T08:52:57;11.20;99.90
6538;DHT22;3302;52.508;13.454;2022-11-02T08:55:23;11.30;99.90
6538;DHT22;3302;52.508;13.454;2022-11-02T08:57:57;11.30;99.90
6538;DHT22;3302;52.508;13.454;2022-11-02T09:00:25;11.40;99.90
6538;DHT22;3302;52.508;13.454;2022-11-02T09:03:05;11.30;99.90
6538;DHT22;3302;52.508;13.454;2022-11-02T09:05:39;11.30;99.90
6538;DHT22;3302;52.508;13.454;2022-11-02T09:08:08;11.30;99.90
6538;DHT22;3302;52.508;13.454;2022-11-02T09:10:35;11.30;99.90
6538;DHT22;3302;52.508;13.454;2022-11-02T09:13:03;11.30;99.90
6538;DHT22;3302;52.508;13.454;2022-11-02T09:15:29;11.40;99.90
6538;DHT22;3302;52.508;13.454;2022-11-02T09:17:57;11.40;99.90
6538;DHT22;3302;52.508;13.454;2022-11-02T09:20:22;11.50;99.90
6538;DHT22;3302;52.508;13.454;2022-11-02T09:22:48;11.50;99.90
6538;DHT22;3302;52.508;13.454;2022-11-02T09:25:15;11.60;99.90
6538;DHT22;3302;52.508;13.454;2022-11-02T09:27:41;11.70;99.90
6538;DHT22;3302;52.508;13.454;2022-11-02T09:30:08;11.80;99.90
6538;DHT22;3302;52.508;13.454;2022-11-02T09:32:35;11.90;99.90
6538;DHT22;3302;52.508;13.454;2022-11-02T09:35:06;12.10;99.90
6538;DHT22;3302;52.508;13.454;2022-11-02T09:37:32;12.20;99.90
6538;DHT22;3302;52.508;13.454;2022-11-02T09:39:58;12.20;99.90
6538;DHT22;3302;52.508;13.454;2022-11-02T09:42:26;12.30;99.90
6538;DHT22;3302;52.508;13.454;2022-11-02T09:45:11;12.40;99.90
6538;DHT22;3302;52.508;13.454;2022-11-02T09:47:54;12.50;99.90
6538;DHT22;3302;52.508;13.454;2022-11-02T09:50:33;12.60;99.90
6538;DHT22;3302;52.508;13.454;2022-11-02T09:53:03;12.50;99.90
6538;DHT22;3302;52.508;13.454;2022-11-02T09:55:36;12.70;99.90
6538;DHT22;3302;52.508;13.454;2022-11-02T09:58:06;12.70;99.90
6538;DHT22;3302;52.508;13.454;2022-11-02T10:00:39;12.80;99.90
6538;DHT22;3302;52.508;13.454;2022-11-02T10:06:10;13.00;99.90
6538;DHT22;3302;52.508;13.454;2022-11-02T10:08:54;13.10;99.90
6538;DHT22;3302;52.508;13.454;2022-11-02T10:11:46;13.20;99.90
6538;DHT22;3302;52.508;13.454;2022-11-02T10:14:22;13.30;99.90
6538;DHT22;3302;52.508;13.454;2022-11-02T10:17:07;13.40;99.90
6538;DHT22;3302;52.508;13.454;2022-11-02T10:19:39;13.40;99.90
6538;DHT22;3302;52.508;13.454;2022-11-02T10:22:09;13.50;99.70
6538;DHT22;3302;52.508;13.454;2022-11-02T10:24:40;13.50;98.80
6538;DHT22;3302;52.508;13.454;2022-11-02T10:27:16;13.60;98.70
6538;DHT22;3302;52.508;13.454;2022-11-02T10:32:13;13.70;97.90
6538;DHT22;3302;52.508;13.454;2022-11-02T10:34:40;13.70;98.20
6538;DHT22;3302;52.508;13.454;2022-11-02T10:37:43;13.80;97.80
6538;DHT22;3302;52.508;13.454;2022-11-02T10:51:07;14.00;97.00
6538;DHT22;3302;52.508;13.454;2022-11-02T10:53:35;14.10;97.10
6538;DHT22;3302;52.508;13.454;2022-11-02T10:56:09;14.20;96.50
6538;DHT22;3302;52.508;13.454;2022-11-02T10:58:41;14.20;96.10
6538;DHT22;3302;52.508;13.454;2022-11-02T11:01:12;14.30;95.90
6538;DHT22;3302;52.508;13.454;2022-11-02T11:03:59;14.30;95.60
6538;DHT22;3302;52.508;13.454;2022-11-02T11:06:40;14.30;95.20
6538;DHT22;3302;52.508;13.454;2022-11-02T11:09:21;14.40;95.10
6538;DHT22;3302;52.508;13.454;2022-11-02T11:12:02;14.40;95.00
6538;DHT22;3302;52.508;13.454;2022-11-02T11:14:31;14.60;94.70
6538;DHT22;3302;52.508;13.454;2022-11-02T11:17:01;14.60;94.30
6538;DHT22;3302;52.508;13.454;2022-11-02T11:19:38;14.60;94.20
6538;DHT22;3302;52.508;13.454;2022-11-02T11:22:28;14.60;93.90
6538;DHT22;3302;52.508;13.454;2022-11-02T11:25:19;14.50;93.40
6538;DHT22;3302;52.508;13.454;2022-11-02T11:27:51;14.50;93.80
6538;DHT22;3302;52.508;13.454;2022-11-02T11:30:33;14.60;93.80
6538;DHT22;3302;52.508;13.454;2022-11-02T11:33:01;14.40;93.60
6538;DHT22;3302;52.508;13.454;2022-11-02T11:35:36;14.40;93.70
6538;DHT22;3302;52.508;13.454;2022-11-02T11:38:06;14.40;93.90
6538;DHT22;3302;52.508;13.454;2022-11-02T11:40:38;14.30;93.70
6538;DHT22;3302;52.508;13.454;2022-11-02T11:43:10;14.30;93.90
6538;DHT22;3302;52.508;13.454;2022-11-02T11:45:37;14.30;93.70
6538;DHT22;3302;52.508;13.454;2022-11-02T11:50:54;14.40;93.60
6538;DHT22;3302;52.508;13.454;2022-11-02T11:53:26;14.40;93.70
6538;DHT22;3302;52.508;13.454;2022-11-02T11:55:57;14.40;93.40
6538;DHT22;3302;52.508;13.454;2022-11-02T11:58:31;14.30;93.50
6538;DHT22;3302;52.508;13.454;2022-11-02T12:03:56;14.40;93.80
6538;DHT22;3302;52.508;13.454;2022-11-02T12:06:43;14.40;93.80
6538;DHT22;3302;52.508;13.454;2022-11-02T12:09:27;14.40;93.50
6538;DHT22;3302;52.508;13.454;2022-11-02T12:25:51;14.40;93.60
6538;DHT22;3302;52.508;13.454;2022-11-02T12:28:37;14.50;93.40
6538;DHT22;3302;52.508;13.454;2022-11-02T12:31:30;14.40;93.20
6538;DHT22;3302;52.508;13.454;2022-11-02T12:43:05;14.60;92.30
6538;DHT22;3302;52.508;13.454;2022-11-02T12:48:28;14.80;89.60
6538;DHT22;3302;52.508;13.454;2022-11-02T12:51:13;14.90;87.30
6538;DHT22;3302;52.508;13.454;2022-11-02T12:53:58;14.90;85.40
6538;DHT22;3302;52.508;13.454;2022-11-02T12:58:57;14.90;81.90
6538;DHT22;3302;52.508;13.454;2022-11-02T13:01:29;14.80;81.20
6538;DHT22;3302;52.508;13.454;2022-11-02T13:04:19;14.90;81.50
6538;DHT22;3302;52.508;13.454;2022-11-02T13:06:49;14.90;79.70
6538;DHT22;3302;52.508;13.454;2022-11-02T13:09:24;14.90;79.30
6538;DHT22;3302;52.508;13.454;2022-11-02T13:12:06;14.90;78.80
6538;DHT22;3302;52.508;13.454;2022-11-02T13:14:43;14.90;78.40
6538;DHT22;3302;52.508;13.454;2022-11-02T13:19:54;14.90;78.30
6538;DHT22;3302;52.508;13.454;2022-11-02T13:22:25;14.90;77.10
6538;DHT22;3302;52.508;13.454;2022-11-02T13:24:57;14.90;75.90
6538;DHT22;3302;52.508;13.454;2022-11-02T13:27:28;14.90;75.40
6538;DHT22;3302;52.508;13.454;2022-11-02T13:29:58;14.80;74.70
6538;DHT22;3302;52.508;13.454;2022-11-02T13:32:35;14.80;75.10
6538;DHT22;3302;52.508;13.454;2022-11-02T13:35:26;14.80;75.90
6538;DHT22;3302;52.508;13.454;2022-11-02T13:38:02;14.80;76.60
6538;DHT22;3302;52.508;13.454;2022-11-02T13:40:36;14.70;75.50
6538;DHT22;3302;52.508;13.454;2022-11-02T13:48:52;14.70;76.70
6538;DHT22;3302;52.508;13.454;2022-11-02T13:51:30;14.70;77.50
6538;DHT22;3302;52.508;13.454;2022-11-02T13:54:27;14.70;77.30
6538;DHT22;3302;52.508;13.454;2022-11-02T13:57:03;14.70;77.20
6538;DHT22;3302;52.508;13.454;2022-11-02T13:59:34;14.70;77.00
6538;DHT22;3302;52.508;13.454;2022-11-02T14:02:07;14.70;77.60
6538;DHT22;3302;52.508;13.454;2022-11-02T14:04:38;14.70;77.30
6538;DHT22;3302;52.508;13.454;2022-11-02T14:07:07;14.70;78.00
6538;DHT22;3302;52.508;13.454;2022-11-02T14:09:42;14.80;78.30
6538;DHT22;3302;52.508;13.454;2022-11-02T14:14:37;14.70;78.30
6538;DHT22;3302;52.508;13.454;2022-11-02T14:17:13;14.70;78.80
6538;DHT22;3302;52.508;13.454;2022-11-02T14:22:16;14.60;79.00
6538;DHT22;3302;52.508;13.454;2022-11-02T14:38:21;14.50;80.10
6538;DHT22;3302;52.508;13.454;2022-11-02T14:46:15;14.50;81.00
6538;DHT22;3302;52.508;13.454;2022-11-02T14:48:50;14.50;81.00
6538;DHT22;3302;52.508;13.454;2022-11-02T14:51:26;14.40;80.80
6538;DHT22;3302;52.508;13.454;2022-11-02T14:54:12;14.40;81.00
6538;DHT22;3302;52.508;13.454;2022-11-02T14:59:38;14.50;79.40
6538;DHT22;3302;52.508;13.454;2022-11-02T15:02:32;14.60;78.90
6538;DHT22;3302;52.508;13.454;2022-11-02T15:05:01;14.50;77.60
6538;DHT22;3302;52.508;13.454;2022-11-02T15:10:34;14.40;75.10
6538;DHT22;3302;52.508;13.454;2022-11-02T15:26:32;14.10;78.20
6538;DHT22;3302;52.508;13.454;2022-11-02T15:29:02;14.10;78.10
6538;DHT22;3302;52.508;13.454;2022-11-02T15:31:29;14.10;77.90
6538;DHT22;3302;52.508;13.454;2022-11-02T15:34:01;14.00;78.00
6538;DHT22;3302;52.508;13.454;2022-11-02T15:36:35;13.90;77.70
6538;DHT22;3302;52.508;13.454;2022-11-02T15:39:05;13.90;78.10
6538;DHT22;3302;52.508;13.454;2022-11-02T15:41:56;13.90;77.80
6538;DHT22;3302;52.508;13.454;2022-11-02T15:50:33;13.70;78.90
6538;DHT22;3302;52.508;13.454;2022-11-02T15:58:43;13.60;80.60
6538;DHT22;3302;52.508;13.454;2022-11-02T16:01:19;13.60;80.00
6538;DHT22;3302;52.508;13.454;2022-11-02T16:03:51;13.50;79.60
6538;DHT22;3302;52.508;13.454;2022-11-02T16:06:29;13.50;79.30
6538;DHT22;3302;52.508;13.454;2022-11-02T16:08:59;13.50;79.50
6538;DHT22;3302;52.508;13.454;2022-11-02T16:11:25;13.40;79.50
6538;DHT22;3302;52.508;13.454;2022-11-02T16:13:51;13.40;80.30
6538;DHT22;3302;52.508;13.454;2022-11-02T16:16:20;13.40;79.50
6538;DHT22;3302;52.508;13.454;2022-11-02T16:18:51;13.30;79.70
6538;DHT22;3302;52.508;13.454;2022-11-02T16:21:19;13.40;79.70
6538;DHT22;3302;52.508;13.454;2022-11-02T16:23:53;13.30;79.50
6538;DHT22;3302;52.508;13.454;2022-11-02T16:26:21;13.20;79.30
6538;DHT22;3302;52.508;13.454;2022-11-02T16:28:53;13.20;79.30
6538;DHT22;3302;52.508;13.454;2022-11-02T16:31:21;13.20;79.70
6538;DHT22;3302;52.508;13.454;2022-11-02T16:33:54;13.20;79.60
6538;DHT22;3302;52.508;13.454;2022-11-02T16:36:25;13.10;79.70
6538;DHT22;3302;52.508;13.454;2022-11-02T16:39:27;13.10;80.80
6538;DHT22;3302;52.508;13.454;2022-11-02T16:41:56;13.10;80.20
6538;DHT22;3302;52.508;13.454;2022-11-02T16:44:28;13.00;80.10
6538;DHT22;3302;52.508;13.454;2022-11-02T16:46:58;13.00;80.20
6538;DHT22;3302;52.508;13.454;2022-11-02T16:49:26;13.00;80.00
6538;DHT22;3302;52.508;13.454;2022-11-02T16:51:54;13.00;80.20
6538;DHT22;3302;52.508;13.454;2022-11-02T16:54:40;12.90;80.10
6538;DHT22;3302;52.508;13.454;2022-11-02T16:59:35;12.90;80.70
6538;DHT22;3302;52.508;13.454;2022-11-02T17:02:02;12.80;80.90
6538;DHT22;3302;52.508;13.454;2022-11-02T17:04:30;12.80;81.00
6538;DHT22;3302;52.508;13.454;2022-11-02T17:07:07;12.80;80.90
6538;DHT22;3302;52.508;13.454;2022-11-02T17:09:35;12.70;81.00
6538;DHT22;3302;52.508;13.454;2022-11-02T17:12:10;12.70;80.70
6538;DHT22;3302;52.508;13.454;2022-11-02T17:14:43;12.70;80.90
6538;DHT22;3302;52.508;13.454;2022-11-02T17:19:53;12.60;81.20
6538;DHT22;3302;52.508;13.454;2022-11-02T17:24:45;12.60;81.60
6538;DHT22;3302;52.508;13.454;2022-11-02T17:27:25;12.60;81.80
6538;DHT22;3302;52.508;13.454;2022-11-02T17:29:52;12.50;81.80
6538;DHT22;3302;52.508;13.454;2022-11-02T17:32:20;12.50;81.80
6538;DHT22;3302;52.508;13.454;2022-11-02T17:34:56;12.50;81.70
6538;DHT22;3302;52.508;13.454;2022-11-02T17:37:27;12.50;81.70
6538;DHT22;3302;52.508;13.454;2022-11-02T17:39:55;12.50;81.70
6538;DHT22;3302;52.508;13.454;2022-11-02T17:42:21;12.40;81.80
6538;DHT22;3302;52.508;13.454;2022-11-02T17:45:36;12.40;82.00
6538;DHT22;3302;52.508;13.454;2022-11-02T17:48:04;12.40;82.00
6538;DHT22;3302;52.508;13.454;2022-11-02T17:50:38;12.40;81.90
6538;DHT22;3302;52.508;13.454;2022-11-02T17:53:05;12.40;82.80
6538;DHT22;3302;52.508;13.454;2022-11-02T17:55:32;12.30;82.20
6538;DHT22;3302;52.508;13.454;2022-11-02T17:57:58;12.30;83.10
6538;DHT22;3302;52.508;13.454;2022-11-02T18:00:25;12.30;83.10
6538;DHT22;3302;52.508;13.454;2022-11-02T18:02:54;12.30;83.30
6538;DHT22;3302;52.508;13.454;2022-11-02T18:05:23;12.20;83.30
6538;DHT22;3302;52.508;13.454;2022-11-02T18:07:49;12.20;83.60
6538;DHT22;3302;52.508;13.454;2022-11-02T18:10:16;12.20;83.80
6538;DHT22;3302;52.508;13.454;2022-11-02T18:12:43;12.20;83.90
6538;DHT22;3302;52.508;13.454;2022-11-02T18:15:14;12.10;84.30
6538;DHT22;3302;52.508;13.454;2022-11-02T18:17:40;12.10;84.50
6538;DHT22;3302;52.508;13.454;2022-11-02T18:20:08;12.10;84.50
6538;DHT22;3302;52.508;13.454;2022-11-02T18:22:33;12.10;84.80
6538;DHT22;3302;52.508;13.454;2022-11-02T18:24:59;12.00;85.90
6538;DHT22;3302;52.508;13.454;2022-11-02T18:27:25;12.00;85.30
6538;DHT22;3302;52.508;13.454;2022-11-02T18:29:50;12.00;85.70
6538;DHT22;3302;52.508;13.454;2022-11-02T18:32:17;12.00;86.00
6538;DHT22;3302;52.508;13.454;2022-11-02T18:34:43;11.90;86.50
6538;DHT22;3302;52.508;13.454;2022-11-02T18:37:09;12.00;87.00
6538;DHT22;3302;52.508;13.454;2022-11-02T18:39:35;11.90;87.40